Time;durP1;ratioP1;P1;durP2;ratioP2;P2;SDS_P1;SDS_P2;PMS_P1;PMS_P2;Temp;Humidity;BMP_temperature;BMP_pressure;BME280_temperature;BME280_humidity;BME280_pressure;Samples;Min_cycle;Max_cycle;Signal;HPM_P1;HPM_P2
2022/03/25 00:00:25;;;;;;;25.03;10.57;;;3.90;89.10;;;;;;5014526;28;20233;-70
2022/03/25 00:02:52;;;;;;;22.87;9.43;;;3.90;89.80;;;;;;5015929;28;20195;-68
2022/03/25 00:05:18;;;;;;;24.47;11.07;;;3.90;90.10;;;;;;5016092;28;20243;-69
2022/03/25 00:07:43;;;;;;;24.73;10.93;;;3.90;90.40;;;;;;5014552;28;20633;-68
2022/03/25 00:10:09;;;;;;;27.23;11.87;;;3.90;90.60;;;;;;5015690;28;20230;-70
2022/03/25 00:12:35;;;;;;;22.37;11.60;;;3.90;90.70;;;;;;5015860;28;20235;-69
2022/03/25 00:15:01;;;;;;;22.50;11.17;;;3.80;90.90;;;;;;5015918;28;20182;-70
2022/03/25 00:17:27;;;;;;;20.37;11.10;;;3.90;91.00;;;;;;5015548;28;20198;-70
2022/03/25 00:19:53;;;;;;;24.43;11.03;;;3.90;91.30;;;;;;5015810;28;20578;-69
2022/03/25 00:22:18;;;;;;;20.50;11.47;;;4.00;91.10;;;;;;5014225;28;20411;-69
2022/03/25 00:24:44;;;;;;;20.10;10.40;;;4.00;91.20;;;;;;5015763;28;20187;-69
2022/03/25 00:27:11;;;;;;;23.50;9.87;;;4.00;91.30;;;;;;5014896;28;20205;-70
2022/03/25 00:29:37;;;;;;;23.07;9.63;;;4.00;91.30;;;;;;5015636;28;20221;-70
2022/03/25 00:32:03;;;;;;;21.00;11.43;;;4.00;91.50;;;;;;5015622;28;20186;-70
2022/03/25 00:34:30;;;;;;;22.07;10.93;;;4.00;91.50;;;;;;5015576;28;20222;-70
2022/03/25 00:36:55;;;;;;;21.70;10.83;;;4.10;91.60;;;;;;5015488;28;20193;-70
2022/03/25 00:39:21;;;;;;;24.00;10.80;;;4.10;91.60;;;;;;5013991;28;20190;-70
2022/03/25 00:41:47;;;;;;;23.67;11.17;;;4.10;91.70;;;;;;5014111;28;20179;-69
2022/03/25 00:44:13;;;;;;;24.43;11.30;;;4.10;91.80;;;;;;5013774;28;20194;-69
2022/03/25 00:46:40;;;;;;;19.83;10.17;;;4.00;91.80;;;;;;5015432;28;20187;-69
2022/03/25 00:49:06;;;;;;;18.07;8.97;;;4.00;91.90;;;;;;5015097;28;20228;-69
2022/03/25 00:51:32;;;;;;;16.93;9.03;;;4.10;92.00;;;;;;5015256;28;20962;-70
2022/03/25 00:53:58;;;;;;;20.00;10.63;;;4.10;92.00;;;;;;5027868;28;20257;-70
2022/03/25 00:56:24;;;;;;;24.17;11.43;;;4.10;92.10;;;;;;5034707;28;20183;-70
2022/03/25 00:58:51;;;;;;;22.33;10.07;;;4.10;92.20;;;;;;5017015;28;20220;-69
2022/03/25 01:01:16;;;;;;;20.33;11.37;;;4.10;92.20;;;;;;5034542;28;20174;-70
2022/03/25 01:03:43;;;;;;;23.80;11.27;;;4.10;92.20;;;;;;5034740;28;20187;-68
2022/03/25 01:06:09;;;;;;;23.13;10.77;;;4.00;92.20;;;;;;5017301;28;20182;-68
2022/03/25 01:08:35;;;;;;;22.07;10.00;;;4.00;92.30;;;;;;5033876;28;20666;-69
2022/03/25 01:11:04;;;;;;;23.20;10.80;;;4.00;92.50;;;;;;5015817;28;20325;-69
2022/03/25 01:13:33;;;;;;;24.47;10.27;;;4.00;92.50;;;;;;5033748;28;20605;-69
2022/03/25 01:16:08;;;;;;;25.93;10.87;;;4.00;92.50;;;;;;5034476;28;20197;-70
2022/03/25 01:18:35;;;;;;;22.53;10.50;;;4.00;92.60;;;;;;5016510;28;20268;-70
2022/03/25 01:21:01;;;;;;;23.53;10.57;;;4.00;92.70;;;;;;5000429;28;20697;-70
2022/03/25 01:23:27;;;;;;;19.10;10.73;;;3.90;92.70;;;;;;5033734;28;20185;-70
2022/03/25 01:25:53;;;;;;;24.80;11.23;;;3.90;92.90;;;;;;5034387;28;20240;-70
2022/03/25 01:28:19;;;;;;;20.20;10.73;;;3.90;92.80;;;;;;5016205;28;20248;-70
2022/03/25 01:30:46;;;;;;;18.47;9.87;;;3.90;92.90;;;;;;5033871;28;20217;-70
2022/03/25 01:33:13;;;;;;;24.70;11.57;;;3.90;92.90;;;;;;5016432;28;20725;-70
2022/03/25 01:35:41;;;;;;;21.13;9.73;;;3.90;93.00;;;;;;5033867;28;20198;-70
2022/03/25 01:38:07;;;;;;;23.67;11.27;;;3.90;93.10;;;;;;5016680;28;20192;-71
2022/03/25 01:40:33;;;;;;;21.03;11.23;;;3.80;93.20;;;;;;5033537;28;20643;-69
2022/03/25 01:42:59;;;;;;;25.43;10.73;;;3.90;93.30;;;;;;4999996;28;20217;-69
2022/03/25 01:45:34;;;;;;;21.50;9.73;;;3.90;93.30;;;;;;5033789;28;20214;-70
2022/03/25 01:48:01;;;;;;;21.37;10.23;;;3.90;93.30;;;;;;5033742;28;20185;-70
2022/03/25 01:50:27;;;;;;;23.13;10.00;;;3.90;93.30;;;;;;5033574;28;20213;-70
2022/03/25 01:52:53;;;;;;;25.10;11.97;;;3.80;93.50;;;;;;5033827;28;20264;-69
2022/03/25 01:55:21;;;;;;;23.87;11.20;;;3.80;93.50;;;;;;5033784;28;20597;-69
2022/03/25 01:57:50;;;;;;;21.60;11.13;;;3.80;93.60;;;;;;5016138;28;20188;-69
2022/03/25 02:00:18;;;;;;;20.60;10.40;;;3.80;93.60;;;;;;5015727;28;20216;-70
2022/03/25 02:02:44;;;;;;;20.73;9.70;;;3.80;93.60;;;;;;5033636;28;20276;-69
2022/03/25 02:05:11;;;;;;;21.27;10.43;;;3.80;93.80;;;;;;5015967;28;20281;-69
2022/03/25 02:07:37;;;;;;;23.10;11.00;;;3.70;93.90;;;;;;5015539;28;20182;-70
2022/03/25 02:10:04;;;;;;;29.53;11.17;;;3.70;94.00;;;;;;5015868;28;20220;-69
2022/03/25 02:12:32;;;;;;;24.87;11.50;;;3.70;94.10;;;;;;5015335;28;20637;-70
2022/03/25 02:14:58;;;;;;;24.90;10.00;;;3.60;94.40;;;;;;5032977;28;20949;-70
2022/03/25 02:17:24;;;;;;;23.07;11.00;;;3.60;94.50;;;;;;5033140;28;20174;-69
2022/03/25 02:19:50;;;;;;;24.67;10.87;;;3.60;94.60;;;;;;5033595;28;20257;-70
2022/03/25 02:22:16;;;;;;;31.20;8.50;;;3.50;94.80;;;;;;5033159;28;20623;-70
2022/03/25 02:24:41;;;;;;;16.27;7.70;;;3.50;95.10;;;;;;5033143;28;20183;-69
2022/03/25 02:27:09;;;;;;;21.57;11.33;;;3.50;95.20;;;;;;5015345;28;20218;-69
2022/03/25 02:29:34;;;;;;;24.43;11.20;;;3.50;95.30;;;;;;5032797;28;20209;-69
2022/03/25 02:32:00;;;;;;;22.30;11.27;;;3.40;95.50;;;;;;5033143;28;20197;-70
2022/03/25 02:34:26;;;;;;;22.40;10.97;;;3.40;95.70;;;;;;5014864;28;20219;-69
2022/03/25 02:36:52;;;;;;;24.33;10.60;;;3.40;95.90;;;;;;5015398;28;20219;-70
2022/03/25 02:39:18;;;;;;;21.33;10.80;;;3.40;96.00;;;;;;5013015;28;20189;-70
2022/03/25 02:41:44;;;;;;;21.43;10.53;;;3.40;96.00;;;;;;5012079;28;20693;-69
2022/03/25 02:44:10;;;;;;;18.23;8.57;;;3.50;95.90;;;;;;5013113;28;20186;-69
2022/03/25 02:46:37;;;;;;;24.20;9.77;;;3.60;95.80;;;;;;5011238;28;20218;-70
2022/03/25 02:49:03;;;;;;;26.70;12.20;;;3.60;95.60;;;;;;5012638;28;20292;-70
2022/03/25 02:51:29;;;;;;;22.43;10.67;;;3.70;95.50;;;;;;5011355;28;20186;-69
2022/03/25 02:53:55;;;;;;;23.63;11.10;;;3.70;95.40;;;;;;5011778;28;20194;-70
2022/03/25 02:56:21;;;;;;;21.60;10.17;;;3.70;95.50;;;;;;5012582;28;20194;-70
2022/03/25 02:58:47;;;;;;;21.13;10.47;;;3.70;95.40;;;;;;5012958;28;20185;-70
2022/03/25 03:01:13;;;;;;;24.07;10.93;;;3.70;95.40;;;;;;5012983;28;20178;-69
2022/03/25 03:03:40;;;;;;;20.83;10.77;;;3.70;95.40;;;;;;5012602;28;20205;-70
2022/03/25 03:06:07;;;;;;;22.17;10.63;;;3.80;95.40;;;;;;5012746;28;20190;-70
2022/03/25 03:08:35;;;;;;;21.33;9.97;;;3.80;95.30;;;;;;5012232;28;20219;-70
2022/03/25 03:11:02;;;;;;;23.47;10.40;;;3.90;95.10;;;;;;5012868;28;20191;-70
2022/03/25 03:13:27;;;;;;;23.70;10.40;;;4.00;94.90;;;;;;5012285;28;20202;-70
2022/03/25 03:15:53;;;;;;;28.50;11.03;;;4.00;94.90;;;;;;5011024;28;20218;-70
2022/03/25 03:18:22;;;;;;;20.13;10.50;;;4.10;94.90;;;;;;5012812;28;20697;-69
2022/03/25 03:20:48;;;;;;;30.10;10.53;;;4.10;94.90;;;;;;5012192;28;20217;-70
2022/03/25 03:23:14;;;;;;;29.13;10.80;;;4.10;94.90;;;;;;5012445;28;20219;-70
2022/03/25 03:25:40;;;;;;;20.20;9.90;;;4.10;94.90;;;;;;5011735;28;20943;-70
2022/03/25 03:28:05;;;;;;;25.40;10.50;;;4.10;95.00;;;;;;5012475;28;20221;-69
2022/03/25 03:30:31;;;;;;;23.40;11.13;;;4.20;94.90;;;;;;5011588;28;20251;-70
2022/03/25 03:32:58;;;;;;;24.23;11.03;;;4.20;94.90;;;;;;5012461;28;20685;-70
2022/03/25 03:35:25;;;;;;;20.37;10.73;;;4.20;95.00;;;;;;5016958;28;20189;-69
2022/03/25 03:37:52;;;;;;;25.47;11.93;;;4.20;95.10;;;;;;5031789;28;20277;-70
2022/03/25 03:40:18;;;;;;;20.67;11.10;;;4.30;95.00;;;;;;5013976;28;20182;-69
2022/03/25 03:42:45;;;;;;;22.43;11.57;;;4.30;94.90;;;;;;5031673;28;20201;-70
2022/03/25 03:45:11;;;;;;;25.77;11.07;;;4.40;94.90;;;;;;5031835;28;20204;-70
2022/03/25 03:47:39;;;;;;;23.53;11.40;;;4.30;95.00;;;;;;5031536;28;20174;-71
2022/03/25 03:50:08;;;;;;;29.40;11.90;;;4.30;95.10;;;;;;5031838;28;20825;-70
2022/03/25 03:52:35;;;;;;;27.50;11.57;;;4.20;95.20;;;;;;5031264;28;20194;-69
2022/03/25 03:55:03;;;;;;;26.40;12.53;;;4.20;95.40;;;;;;5014038;28;20192;-70
2022/03/25 03:57:29;;;;;;;24.73;10.57;;;4.20;95.60;;;;;;5013620;28;20190;-70
2022/03/25 03:59:55;;;;;;;26.00;11.33;;;4.10;95.80;;;;;;5014058;28;20189;-70
2022/03/25 04:02:21;;;;;;;22.07;11.83;;;4.10;95.90;;;;;;5013818;28;20232;-70
2022/03/25 04:04:47;;;;;;;24.53;12.10;;;4.20;95.90;;;;;;5031779;28;20182;-70
2022/03/25 04:07:15;;;;;;;25.43;11.87;;;4.20;96.00;;;;;;5014058;28;20193;-70
2022/03/25 04:09:41;;;;;;;27.97;13.10;;;4.20;96.00;;;;;;5031111;28;20217;-70
2022/03/25 04:12:11;;;;;;;25.60;12.40;;;4.10;96.20;;;;;;5031038;28;20657;-70
2022/03/25 04:14:37;;;;;;;28.53;12.80;;;4.10;96.30;;;;;;5014339;28;20653;-69
2022/03/25 04:17:03;;;;;;;22.13;10.43;;;4.10;96.40;;;;;;5031371;28;20191;-70
2022/03/25 04:19:29;;;;;;;24.97;11.20;;;4.10;96.50;;;;;;5030761;28;20194;-70
2022/03/25 04:21:55;;;;;;;22.70;11.33;;;4.00;96.60;;;;;;5031321;28;20178;-69
2022/03/25 04:24:20;;;;;;;28.67;12.50;;;4.00;96.70;;;;;;5013736;28;20191;-70
2022/03/25 04:26:46;;;;;;;29.73;12.87;;;4.00;97.00;;;;;;5030579;28;20589;-70
2022/03/25 04:29:12;;;;;;;31.43;12.50;;;4.00;97.00;;;;;;5013136;28;20578;-71
2022/03/25 04:31:38;;;;;;;27.13;13.20;;;4.00;97.00;;;;;;5030458;28;20233;-70
2022/03/25 04:34:04;;;;;;;24.53;12.30;;;4.00;97.00;;;;;;5030841;28;20283;-70
2022/03/25 04:36:30;;;;;;;27.93;12.40;;;4.00;97.00;;;;;;5016284;28;20533;-70
2022/03/25 04:38:56;;;;;;;31.70;12.23;;;4.00;97.10;;;;;;5011632;28;20199;-71
2022/03/25 04:41:23;;;;;;;30.00;11.60;;;4.10;97.20;;;;;;5011651;28;20185;-70
2022/03/25 04:43:50;;;;;;;26.47;11.43;;;4.10;97.30;;;;;;5011320;28;20628;-70
2022/03/25 04:46:16;;;;;;;29.33;12.27;;;4.10;97.20;;;;;;5010348;28;20198;-71
2022/03/25 04:48:42;;;;;;;25.47;11.67;;;4.10;97.30;;;;;;5012871;28;20600;-70
2022/03/25 04:51:08;;;;;;;25.50;11.63;;;4.10;97.20;;;;;;5013364;28;20214;-70
2022/03/25 04:53:34;;;;;;;25.00;10.47;;;4.10;97.40;;;;;;5013566;28;20184;-71
2022/03/25 04:56:00;;;;;;;29.87;12.83;;;4.10;97.40;;;;;;5014896;28;20188;-70
2022/03/25 04:58:26;;;;;;;25.40;13.33;;;4.10;97.40;;;;;;5012744;28;20280;-70
2022/03/25 05:00:52;;;;;;;28.13;12.83;;;4.20;97.40;;;;;;5014498;28;20313;-70
2022/03/25 05:03:19;;;;;;;27.47;11.93;;;4.10;97.50;;;;;;5014424;28;20188;-70
2022/03/25 05:05:45;;;;;;;26.00;11.97;;;4.10;97.60;;;;;;5014432;28;20214;-69
2022/03/25 05:08:11;;;;;;;27.87;13.23;;;4.10;97.60;;;;;;5014507;28;20663;-71
2022/03/25 05:10:40;;;;;;;29.70;12.50;;;4.10;97.80;;;;;;5014194;28;20207;-69
2022/03/25 05:13:08;;;;;;;29.60;12.97;;;4.10;97.90;;;;;;5014125;28;20204;-70
2022/03/25 05:15:35;;;;;;;32.53;12.37;;;4.20;98.00;;;;;;5013969;28;20225;-69
2022/03/25 05:18:01;;;;;;;26.33;12.50;;;4.20;97.90;;;;;;5013953;28;20262;-70
2022/03/25 05:20:26;;;;;;;27.77;12.67;;;4.20;98.00;;;;;;5012690;28;20525;-70
2022/03/25 05:22:52;;;;;;;25.67;12.53;;;4.20;98.00;;;;;;5013818;28;20187;-71
2022/03/25 05:25:19;;;;;;;25.63;10.90;;;4.20;98.10;;;;;;5014149;28;20634;-70
2022/03/25 05:27:47;;;;;;;31.17;12.80;;;4.30;98.10;;;;;;5013686;28;20180;-68
2022/03/25 05:30:13;;;;;;;27.07;11.13;;;4.40;98.20;;;;;;5013477;28;20646;-70
2022/03/25 05:32:41;;;;;;;29.30;12.23;;;4.50;97.60;;;;;;5011409;28;20250;-72
2022/03/25 05:35:08;;;;;;;23.20;11.10;;;4.50;97.40;;;;;;5016324;28;20212;-69
2022/03/25 05:37:35;;;;;;;25.07;11.70;;;4.50;97.30;;;;;;5032731;28;20280;-68
2022/03/25 05:40:01;;;;;;;28.30;12.17;;;4.50;97.30;;;;;;5033240;28;20193;-69
2022/03/25 05:42:27;;;;;;;25.33;12.47;;;4.50;97.20;;;;;;5014478;28;20194;-70
2022/03/25 05:44:53;;;;;;;17.53;8.23;;;4.50;97.10;;;;;;5014207;28;20211;-68
2022/03/25 05:47:18;;;;;;;28.10;12.73;;;4.60;97.00;;;;;;5032636;28;20649;-68
2022/03/25 05:49:45;;;;;;;27.83;11.80;;;4.60;97.10;;;;;;5031914;28;20284;-70
2022/03/25 05:52:11;;;;;;;18.67;8.03;;;4.50;97.20;;;;;;5014992;28;20201;-68
2022/03/25 05:54:37;;;;;;;22.77;11.60;;;4.50;97.50;;;;;;5014740;28;20238;-67
2022/03/25 05:57:03;;;;;;;30.37;13.27;;;4.50;98.00;;;;;;5014325;28;20187;-68
2022/03/25 05:59:29;;;;;;;28.63;11.57;;;4.50;97.90;;;;;;5032004;28;20550;-70
2022/03/25 06:01:54;;;;;;;27.03;12.37;;;4.50;97.70;;;;;;5032359;28;20216;-68
2022/03/25 06:04:20;;;;;;;32.30;12.43;;;4.60;97.70;;;;;;5032513;28;20265;-64
2022/03/25 06:06:46;;;;;;;31.30;11.87;;;4.60;97.70;;;;;;5031907;28;20293;-63
2022/03/25 06:09:12;;;;;;;26.77;13.03;;;4.60;98.70;;;;;;5011521;28;20221;-71
2022/03/25 06:11:37;;;;;;;25.27;11.97;;;4.60;99.40;;;;;;5004933;28;20191;-64
2022/03/25 06:14:03;;;;;;;24.13;11.13;;;4.60;99.40;;;;;;4978750;28;20190;-66
2022/03/25 06:16:29;;;;;;;24.20;12.03;;;4.60;99.10;;;;;;4994583;28;20624;-67
2022/03/25 06:18:55;;;;;;;28.13;11.40;;;4.60;99.50;;;;;;5012202;28;20270;-67
2022/03/25 06:21:21;;;;;;;29.67;13.23;;;4.50;98.80;;;;;;4994526;28;20249;-63
2022/03/25 06:23:47;;;;;;;28.77;12.23;;;4.60;99.20;;;;;;5011856;28;20286;-63
2022/03/25 06:26:13;;;;;;;27.63;12.37;;;4.60;98.70;;;;;;5012111;28;20270;-61
2022/03/25 06:28:39;;;;;;;22.30;9.70;;;4.50;98.90;;;;;;5012130;28;20322;-69
2022/03/25 06:31:05;;;;;;;25.80;11.27;;;4.50;99.50;;;;;;5012132;28;20186;-71
2022/03/25 06:33:31;;;;;;;28.77;11.23;;;4.50;99.90;;;;;;5012089;28;20187;-70
2022/03/25 06:35:57;;;;;;;26.70;12.57;;;4.40;99.90;;;;;;5022378;28;20190;-67
2022/03/25 06:38:23;;;;;;;26.20;10.70;;;4.40;99.90;;;;;;5031854;28;20197;-70
2022/03/25 06:40:48;;;;;;;29.17;13.10;;;4.40;99.90;;;;;;5017182;28;20295;-71
2022/03/25 06:43:14;;;;;;;26.27;12.70;;;4.50;99.90;;;;;;5011764;28;20265;-72
2022/03/25 06:45:40;;;;;;;23.50;13.13;;;4.40;99.90;;;;;;5011492;28;20642;-71
2022/03/25 06:48:06;;;;;;;28.13;14.00;;;4.50;99.90;;;;;;5016948;28;20190;-71
2022/03/25 06:50:32;;;;;;;28.13;13.57;;;4.70;99.90;;;;;;5011012;28;20285;-69
2022/03/25 06:53:01;;;;;;;28.40;12.77;;;4.70;99.90;;;;;;4977635;28;20260;-70
2022/03/25 06:55:28;;;;;;;27.23;12.93;;;4.70;99.90;;;;;;5011716;28;20249;-71
2022/03/25 06:57:54;;;;;;;25.00;12.17;;;4.70;99.90;;;;;;5011120;28;20198;-71
2022/03/25 07:00:21;;;;;;;26.87;12.03;;;4.60;99.90;;;;;;5012042;28;20283;-69
2022/03/25 07:02:48;;;;;;;27.33;13.43;;;4.80;99.90;;;;;;5011451;28;20568;-69
2022/03/25 07:05:15;;;;;;;31.03;12.73;;;4.90;99.90;;;;;;4997938;28;20229;-68
2022/03/25 07:07:41;;;;;;;31.57;14.53;;;4.90;99.90;;;;;;5031154;28;20214;-75
2022/03/25 07:10:11;;;;;;;27.70;13.73;;;4.90;99.90;;;;;;5030421;28;20219;-69
2022/03/25 07:12:39;;;;;;;26.13;11.47;;;5.00;99.90;;;;;;5031124;28;20273;-70
2022/03/25 07:15:07;;;;;;;32.50;11.23;;;5.00;99.90;;;;;;5031244;28;20186;-71
2022/03/25 07:17:33;;;;;;;25.30;10.83;;;5.20;99.90;;;;;;5030465;28;20187;-66
2022/03/25 07:19:59;;;;;;;30.50;14.57;;;5.10;99.90;;;;;;5031121;28;20194;-68
2022/03/25 07:22:25;;;;;;;34.93;15.60;;;5.00;99.90;;;;;;5011514;28;20183;-70
2022/03/25 07:24:51;;;;;;;35.13;16.27;;;5.00;99.90;;;;;;5003728;28;20241;-70
2022/03/25 07:27:16;;;;;;;23.90;11.13;;;5.00;99.90;;;;;;5031506;28;20171;-70
2022/03/25 07:29:42;;;;;;;28.70;14.50;;;4.80;99.90;;;;;;5018903;28;20674;-70
2022/03/25 07:32:08;;;;;;;30.67;13.77;;;4.60;99.90;;;;;;5009599;28;20233;-69
2022/03/25 07:34:38;;;;;;;29.97;14.13;;;4.40;99.90;;;;;;5008957;28;20182;-70
2022/03/25 07:37:04;;;;;;;39.87;15.20;;;4.20;99.90;;;;;;5028165;28;20229;-70
2022/03/25 07:39:31;;;;;;;32.77;16.27;;;3.90;99.90;;;;;;5029661;28;20194;-70
2022/03/25 07:41:57;;;;;;;30.90;14.10;;;3.80;99.90;;;;;;5029494;28;20186;-72
2022/03/25 07:44:23;;;;;;;35.97;15.17;;;3.80;99.90;;;;;;5029173;28;20601;-70
2022/03/25 07:46:49;;;;;;;29.97;14.57;;;3.70;99.90;;;;;;5028462;28;20235;-71
2022/03/25 07:49:15;;;;;;;36.33;15.43;;;3.70;99.90;;;;;;5030930;28;20233;-72
2022/03/25 07:51:42;;;;;;;41.87;18.53;;;3.70;99.90;;;;;;5030761;28;20231;-70
2022/03/25 07:54:08;;;;;;;34.23;15.13;;;3.60;99.90;;;;;;5030444;28;20177;-71
2022/03/25 07:56:33;;;;;;;44.17;20.60;;;3.60;99.90;;;;;;5029017;28;20193;-71
2022/03/25 07:58:59;;;;;;;43.77;20.20;;;3.70;99.90;;;;;;5029309;28;20190;-71
2022/03/25 08:01:26;;;;;;;50.47;22.57;;;3.90;99.90;;;;;;5031265;28;20629;-72
2022/03/25 08:03:52;;;;;;;46.23;22.40;;;4.00;99.90;;;;;;5030823;28;20281;-71
2022/03/25 08:06:18;;;;;;;36.63;17.23;;;3.90;99.90;;;;;;5030392;28;20548;-73
2022/03/25 08:08:47;;;;;;;34.90;16.93;;;3.80;99.90;;;;;;5012673;28;20193;-71
2022/03/25 08:11:13;;;;;;;30.33;14.80;;;3.80;99.90;;;;;;5030837;28;20684;-72
2022/03/25 08:13:39;;;;;;;46.43;21.33;;;4.10;99.90;;;;;;5030019;28;20242;-72
2022/03/25 08:16:05;;;;;;;34.67;16.33;;;4.20;99.90;;;;;;5030863;28;20190;-71
2022/03/25 08:18:30;;;;;;;42.40;21.03;;;4.40;99.90;;;;;;5030362;28;20599;-70
2022/03/25 08:20:57;;;;;;;26.77;12.17;;;4.60;99.90;;;;;;5030499;28;20236;-69
2022/03/25 08:28:55;;;;;;;33.30;14.60;;;4.70;99.90;;;;;;5033118;28;20641;-72
2022/03/25 08:31:21;;;;;;;30.70;15.07;;;4.70;99.90;;;;;;5016691;28;20514;-70
2022/03/25 08:33:47;;;;;;;29.33;15.53;;;4.80;99.90;;;;;;5033871;28;20273;-71
2022/03/25 08:36:16;;;;;;;33.13;15.33;;;5.10;99.90;;;;;;5021573;28;20266;-71
2022/03/25 08:38:42;;;;;;;28.83;12.83;;;5.50;99.90;;;;;;5013578;28;20190;-70
2022/03/25 08:41:07;;;;;;;31.27;14.47;;;5.80;99.90;;;;;;4996466;28;20187;-69
2022/03/25 08:43:33;;;;;;;26.73;14.13;;;6.00;99.90;;;;;;5014133;28;20533;-69
2022/03/25 08:45:59;;;;;;;35.77;16.13;;;6.30;99.90;;;;;;5013836;28;20191;-71
2022/03/25 08:48:25;;;;;;;52.40;13.17;;;6.50;99.90;;;;;;4996417;28;20266;-71
2022/03/25 08:50:51;;;;;;;23.13;12.30;;;6.60;99.80;;;;;;5041133;28;20218;-70
2022/03/25 08:53:17;;;;;;;24.83;10.57;;;6.60;98.30;;;;;;5029952;28;20279;-70
2022/03/25 08:55:43;;;;;;;28.47;10.97;;;6.50;98.00;;;;;;5029533;28;20215;-69
2022/03/25 08:58:09;;;;;;;43.17;13.23;;;6.60;97.50;;;;;;5028418;28;20195;-69
2022/03/25 09:00:35;;;;;;;43.70;14.67;;;6.50;97.40;;;;;;5034179;28;20264;-70
2022/03/25 09:03:01;;;;;;;34.57;12.57;;;6.70;97.00;;;;;;5024930;28;20203;-68
2022/03/25 09:05:26;;;;;;;28.10;11.50;;;6.70;96.20;;;;;;5032128;28;20265;-71
2022/03/25 09:07:52;;;;;;;31.20;14.40;;;6.80;96.30;;;;;;5019777;28;20200;-69
2022/03/25 09:10:18;;;;;;;29.40;12.83;;;6.60;96.40;;;;;;5031283;28;20250;-69
2022/03/25 09:12:45;;;;;;;23.37;11.43;;;6.50;96.80;;;;;;5029250;28;20222;-69
2022/03/25 09:15:15;;;;;;;24.33;11.07;;;6.40;96.50;;;;;;5026060;28;20947;-70
2022/03/25 09:17:43;;;;;;;23.23;11.50;;;6.40;96.50;;;;;;5024199;28;20192;-72
2022/03/25 09:20:10;;;;;;;42.03;12.63;;;6.40;96.50;;;;;;5011732;28;20192;-71
2022/03/25 09:22:36;;;;;;;19.83;9.30;;;6.30;96.30;;;;;;5023523;28;20198;-70
2022/03/25 09:25:04;;;;;;;21.63;10.13;;;6.10;95.90;;;;;;5026971;28;20586;-72
2022/03/25 09:27:30;;;;;;;40.40;12.37;;;6.00;96.10;;;;;;5026368;28;20258;-70
2022/03/25 09:29:55;;;;;;;18.57;9.90;;;5.90;96.40;;;;;;5011344;28;20299;-72
2022/03/25 09:32:21;;;;;;;17.93;8.10;;;6.10;96.20;;;;;;5024148;28;20578;-69
2022/03/25 09:35:09;;;;;;;21.30;8.90;;;6.30;96.10;;;;;;5013517;28;20596;-69
2022/03/25 09:37:38;;;;;;;20.43;9.00;;;6.20;96.00;;;;;;5032713;28;20167;-70
2022/03/25 09:40:07;;;;;;;30.57;9.97;;;6.30;96.20;;;;;;5032288;28;20669;-70
2022/03/25 09:42:33;;;;;;;16.97;9.57;;;6.40;96.00;;;;;;5033360;28;20177;-71
2022/03/25 09:45:01;;;;;;;33.60;12.17;;;6.60;95.40;;;;;;5014551;28;20265;-69
2022/03/25 09:47:27;;;;;;;37.53;12.00;;;6.80;95.40;;;;;;5033119;28;20179;-72
2022/03/25 09:49:53;;;;;;;31.00;10.63;;;6.90;95.40;;;;;;5033050;28;20232;-70
2022/03/25 09:52:19;;;;;;;15.87;8.33;;;7.00;95.40;;;;;;5032252;28;20259;-70
2022/03/25 09:54:45;;;;;;;30.93;9.67;;;7.10;94.70;;;;;;5012860;28;20190;-69
2022/03/25 09:57:11;;;;;;;25.57;8.80;;;7.20;94.50;;;;;;5030896;28;20249;-69
2022/03/25 09:59:36;;;;;;;14.13;6.97;;;7.20;93.80;;;;;;5030563;28;20247;-69
2022/03/25 10:02:04;;;;;;;14.53;7.10;;;7.10;93.60;;;;;;5030190;28;20646;-69
2022/03/25 10:04:56;;;;;;;13.43;7.27;;;7.40;93.20;;;;;;5030690;28;20269;-71
2022/03/25 10:07:34;;;;;;;15.33;7.57;;;7.70;92.70;;;;;;5026881;28;20200;-71
2022/03/25 10:10:08;;;;;;;18.63;9.10;;;7.80;92.10;;;;;;5031706;28;20247;-71
2022/03/25 10:12:35;;;;;;;19.40;8.20;;;7.60;92.10;;;;;;5014633;28;20187;-71
2022/03/25 10:15:22;;;;;;;17.77;6.57;;;7.30;92.10;;;;;;5031674;28;20536;-69
2022/03/25 10:17:58;;;;;;;14.80;6.47;;;7.00;91.70;;;;;;5031626;28;20231;-72
2022/03/25 10:20:28;;;;;;;13.77;7.00;;;6.80;91.50;;;;;;5032336;28;20206;-71
2022/03/25 10:23:07;;;;;;;13.40;6.87;;;6.60;91.80;;;;;;5031840;28;20176;-71
2022/03/25 10:25:37;;;;;;;14.50;6.53;;;6.70;92.30;;;;;;5036574;28;20215;-69
2022/03/25 10:28:05;;;;;;;11.87;6.30;;;7.00;92.00;;;;;;5026993;28;20190;-70
2022/03/25 10:30:41;;;;;;;23.60;9.03;;;7.30;91.60;;;;;;5024342;28;20245;-71
2022/03/25 10:33:11;;;;;;;15.63;7.00;;;7.60;91.30;;;;;;5030189;28;20735;-69
2022/03/25 10:35:56;;;;;;;12.10;5.50;;;8.00;90.60;;;;;;5019445;28;20223;-69
2022/03/25 10:38:23;;;;;;;14.00;5.70;;;8.00;89.60;;;;;;5019423;28;20244;-70
2022/03/25 10:40:53;;;;;;;15.23;5.93;;;8.20;89.50;;;;;;5027693;28;20198;-71
2022/03/25 10:43:20;;;;;;;18.97;6.50;;;8.20;88.20;;;;;;5013609;28;20286;-71
2022/03/25 10:45:46;;;;;;;14.20;6.13;;;8.40;88.60;;;;;;5031252;28;20643;-71
2022/03/25 10:48:12;;;;;;;18.83;6.63;;;8.60;87.30;;;;;;5025901;28;20221;-69
2022/03/25 10:50:55;;;;;;;9.43;5.23;;;8.60;87.50;;;;;;5001771;28;20626;-72
2022/03/25 10:53:27;;;;;;;8.37;5.03;;;8.30;87.20;;;;;;5011681;28;20198;-72
2022/03/25 10:56:13;;;;;;;10.70;5.50;;;8.50;87.20;;;;;;5009572;28;20183;-71
2022/03/25 10:58:54;;;;;;;18.13;5.73;;;8.50;87.40;;;;;;5009624;28;20695;-70
2022/03/25 11:01:20;;;;;;;12.83;5.70;;;8.60;87.30;;;;;;5009956;28;20179;-70
2022/03/25 11:03:49;;;;;;;11.87;5.50;;;8.30;85.90;;;;;;4991808;28;20183;-69
2022/03/25 11:06:17;;;;;;;10.07;5.50;;;8.40;86.80;;;;;;5010190;28;20202;-70
2022/03/25 11:08:43;;;;;;;11.97;6.23;;;8.50;87.20;;;;;;4992070;28;20228;-71
2022/03/25 11:11:09;;;;;;;13.13;5.57;;;8.30;88.10;;;;;;5009218;28;20343;-70
2022/03/25 11:13:35;;;;;;;16.20;6.37;;;8.20;87.40;;;;;;5009735;28;20182;-69
2022/03/25 11:16:08;;;;;;;12.53;6.20;;;8.10;87.30;;;;;;4991603;28;20204;-70
2022/03/25 11:18:37;;;;;;;14.40;6.90;;;7.90;87.90;;;;;;5009753;28;20179;-69
2022/03/25 11:21:05;;;;;;;12.40;6.17;;;8.00;88.60;;;;;;4992237;28;20187;-71
2022/03/25 11:23:51;;;;;;;12.93;6.37;;;8.30;88.60;;;;;;4992188;28;20187;-71
2022/03/25 11:26:21;;;;;;;13.73;4.87;;;8.40;87.30;;;;;;4993408;28;20226;-71
2022/03/25 11:28:56;;;;;;;10.60;5.73;;;9.00;85.50;;;;;;5010574;28;20579;-71
2022/03/25 11:31:24;;;;;;;12.23;5.37;;;9.40;81.80;;;;;;5010938;28;20159;-72
2022/03/25 11:34:09;;;;;;;8.33;4.90;;;9.90;80.30;;;;;;5010882;28;20271;-69
2022/03/25 11:36:40;;;;;;;8.77;5.20;;;9.90;76.90;;;;;;5025053;28;20216;-70
2022/03/25 11:39:27;;;;;;;13.03;6.43;;;9.80;77.60;;;;;;5013051;28;20291;-71
2022/03/25 11:42:01;;;;;;;9.23;5.83;;;9.10;76.80;;;;;;5030033;28;20186;-72
2022/03/25 11:44:27;;;;;;;15.53;5.13;;;9.00;77.80;;;;;;5030756;28;20221;-71
2022/03/25 11:47:02;;;;;;;10.40;6.03;;;9.30;77.10;;;;;;5030063;28;20194;-71
2022/03/25 11:49:38;;;;;;;11.93;5.07;;;9.60;76.20;;;;;;5012633;28;20333;-72
2022/03/25 11:52:16;;;;;;;10.70;5.37;;;9.20;74.50;;;;;;5030438;28;20174;-72
2022/03/25 11:54:43;;;;;;;10.60;5.60;;;9.40;76.40;;;;;;5031305;28;20190;-71
2022/03/25 11:57:25;;;;;;;11.03;6.07;;;10.30;74.40;;;;;;5018041;28;20184;-72
2022/03/25 12:00:02;;;;;;;9.13;4.57;;;10.60;73.80;;;;;;5036119;28;20566;-73
2022/03/25 12:02:32;;;;;;;12.83;5.17;;;10.90;74.10;;;;;;5037488;28;20175;-73
2022/03/25 12:05:00;;;;;;;13.67;5.57;;;11.00;74.30;;;;;;5037248;28;20181;-74
2022/03/25 12:07:26;;;;;;;10.97;4.90;;;12.60;71.30;;;;;;5036630;28;20664;-75
2022/03/25 12:09:52;;;;;;;12.93;5.77;;;14.30;64.90;;;;;;5036857;28;20295;-75
2022/03/25 12:12:18;;;;;;;9.60;5.30;;;15.10;60.30;;;;;;5018556;28;20189;-74
2022/03/25 12:15:13;;;;;;;13.17;5.53;;;14.60;58.90;;;;;;5037169;28;20183;-75
2022/03/25 12:17:39;;;;;;;11.27;6.10;;;15.40;57.70;;;;;;5015560;28;20290;-72
2022/03/25 12:20:05;;;;;;;10.00;5.10;;;16.40;56.30;;;;;;5018534;28;20924;-73
2022/03/25 12:22:33;;;;;;;9.83;5.30;;;16.90;53.10;;;;;;5036999;28;20584;-71
2022/03/25 12:25:21;;;;;;;9.57;5.80;;;16.20;53.00;;;;;;5036922;28;20521;-73
2022/03/25 12:27:47;;;;;;;9.97;5.40;;;16.50;52.10;;;;;;5036550;28;20183;-74
2022/03/25 12:30:14;;;;;;;8.63;5.13;;;16.60;51.60;;;;;;5036655;28;20230;-73
2022/03/25 12:32:40;;;;;;;13.17;5.70;;;16.10;51.70;;;;;;5036558;28;20627;-73
2022/03/25 12:35:16;;;;;;;13.23;5.73;;;16.80;51.70;;;;;;5033457;28;20185;-72
2022/03/25 12:38:10;;;;;;;12.50;6.27;;;17.10;50.20;;;;;;5017121;28;20179;-74
2022/03/25 12:40:36;;;;;;;10.40;6.43;;;15.30;51.50;;;;;;5017350;28;20195;-72
2022/03/25 12:43:05;;;;;;;10.97;5.43;;;14.20;54.50;;;;;;5016974;28;20239;-72
2022/03/25 12:45:36;;;;;;;8.43;5.47;;;15.30;52.60;;;;;;5017085;28;20261;-72
2022/03/25 12:48:18;;;;;;;7.40;4.50;;;16.00;51.30;;;;;;5016711;28;20180;-73